createdAt,value
2019-01-20T00:03:15.372Z,25.00
2019-01-20T00:13:20.718Z,24.50
2019-01-20T00:23:25.975Z,26.83
2019-01-20T00:33:31.542Z,27.30
2019-01-20T00:43:36.908Z,26.37
2019-01-20T00:53:42.376Z,25.57
2019-01-20T01:03:47.740Z,24.47
2019-01-20T01:13:53.096Z,28.07
2019-01-20T01:23:58.457Z,28.17
2019-01-20T01:34:03.671Z,29.93
2019-01-20T01:44:09.349Z,27.80
2019-01-20T01:54:14.724Z,27.87
2019-01-20T02:04:20.075Z,27.87
2019-01-20T02:14:25.384Z,25.73
2019-01-20T02:24:30.862Z,28.27
2019-01-20T02:34:36.135Z,29.43
2019-01-20T02:44:41.569Z,29.47
2019-01-20T02:54:47.003Z,30.50
2019-01-20T03:04:52.259Z,33.23
2019-01-20T03:14:57.577Z,28.50
2019-01-20T03:25:02.890Z,39.53
2019-01-20T03:35:08.599Z,25.80
2019-01-20T03:45:15.923Z,24.50
2019-01-20T03:55:21.251Z,22.07
2019-01-20T04:05:26.632Z,22.97
2019-01-20T04:15:31.906Z,19.27
2019-01-20T04:25:37.320Z,20.63
2019-01-20T04:35:42.629Z,20.43
2019-01-20T04:45:47.854Z,20.13
2019-01-20T04:55:53.206Z,24.57
2019-01-20T05:05:58.542Z,36.40
2019-01-20T05:16:03.976Z,45.33
2019-01-20T05:26:09.330Z,53.13
2019-01-20T05:36:14.650Z,58.03
2019-01-20T05:46:20.021Z,56.67
2019-01-20T05:56:25.376Z,59.03
2019-01-20T06:06:30.829Z,54.97
2019-01-20T06:16:36.199Z,44.93
2019-01-20T06:26:41.836Z,41.93
2019-01-20T06:36:47.103Z,44.90
2019-01-20T06:46:52.420Z,66.00
2019-01-20T06:56:57.858Z,62.00
2019-01-20T07:07:03.201Z,54.53
2019-01-20T07:17:08.534Z,50.00
2019-01-20T07:27:13.861Z,45.17
2019-01-20T07:37:19.263Z,34.13
2019-01-20T07:47:24.977Z,37.40
2019-01-20T07:57:30.377Z,36.90
2019-01-20T08:07:35.665Z,35.33
2019-01-20T08:17:41.111Z,36.67
2019-01-20T08:27:46.427Z,33.00
2019-01-20T08:37:51.751Z,30.77
2019-01-20T08:48:01.613Z,28.83
2019-01-20T08:58:07.017Z,27.10
2019-01-20T09:08:12.601Z,28.33
2019-01-20T09:18:17.971Z,28.57
2019-01-20T09:28:23.289Z,29.17
2019-01-20T09:38:28.993Z,32.07
2019-01-20T09:48:34.386Z,34.43
2019-01-20T09:58:39.615Z,35.77
2019-01-20T10:08:46.153Z,35.13
2019-01-20T10:18:51.519Z,36.07
2019-01-20T10:28:57.237Z,37.07
2019-01-20T10:39:02.990Z,34.97
2019-01-20T10:49:08.348Z,36.60
2019-01-20T10:59:13.786Z,36.17
2019-01-20T11:09:19.134Z,34.27
2019-01-20T11:19:24.520Z,32.27
2019-01-20T11:29:29.815Z,29.57
2019-01-20T11:39:35.054Z,29.40
2019-01-20T11:49:40.373Z,29.67
2019-01-20T11:59:45.718Z,27.33
2019-01-20T12:09:51.106Z,27.73
2019-01-20T12:19:56.498Z,26.40
2019-01-20T12:30:01.812Z,27.00
2019-01-20T12:40:10.795Z,23.43
2019-01-20T12:50:16.684Z,23.70
2019-01-20T13:00:22.193Z,22.53
2019-01-20T13:10:27.615Z,22.73
2019-01-20T13:20:32.988Z,20.27
2019-01-20T13:30:38.343Z,20.73
2019-01-20T13:41:04.427Z,21.60
2019-01-20T13:51:09.978Z,23.97
2019-01-20T14:01:15.423Z,25.87
2019-01-20T14:11:20.682Z,21.90
2019-01-20T14:21:26.161Z,25.83
2019-01-20T14:31:31.418Z,25.50
2019-01-20T14:41:36.759Z,22.77
2019-01-20T14:51:42.014Z,22.73
2019-01-20T15:01:47.279Z,22.50
2019-01-20T15:11:52.571Z,22.33
2019-01-20T15:21:58.971Z,23.50
2019-01-20T15:32:04.307Z,21.30
2019-01-20T15:42:09.712Z,23.40
2019-01-20T15:52:15.121Z,25.43
2019-01-20T16:02:20.610Z,24.03
2019-01-20T16:12:26.175Z,22.43
2019-01-20T16:22:31.501Z,34.13
2019-01-20T16:32:36.805Z,30.70
2019-01-20T16:42:42.287Z,19.73
2019-01-20T16:52:47.607Z,17.97
2019-01-20T17:02:53.323Z,17.90
2019-01-20T17:12:58.968Z,17.97
2019-01-20T17:23:04.638Z,19.67
2019-01-20T17:33:10.874Z,19.37
2019-01-20T17:43:16.171Z,18.50
2019-01-20T17:53:21.637Z,18.47
2019-01-20T18:03:26.957Z,17.97
2019-01-20T18:13:32.480Z,18.57
2019-01-20T18:23:38.110Z,19.07
2019-01-20T18:33:43.441Z,18.37
2019-01-20T18:43:48.936Z,20.47
2019-01-20T18:53:54.224Z,23.00
2019-01-20T19:03:59.576Z,21.40
2019-01-20T19:14:05.312Z,21.70
2019-01-20T19:24:10.617Z,24.00
2019-01-20T19:34:15.984Z,24.37
2019-01-20T19:44:21.298Z,25.67
2019-01-20T19:54:26.630Z,27.33
2019-01-20T20:04:31.894Z,29.60
2019-01-20T20:14:37.312Z,25.73
2019-01-20T20:24:42.684Z,26.50
2019-01-20T20:34:48.027Z,27.63
2019-01-20T20:44:53.438Z,29.57
2019-01-20T20:54:58.866Z,29.27
2019-01-20T21:05:04.416Z,30.03
2019-01-20T21:15:11.205Z,29.43
2019-01-20T21:25:16.483Z,32.63
2019-01-20T21:35:22.063Z,34.63
2019-01-20T21:45:27.436Z,31.30
2019-01-20T21:55:32.714Z,30.47
2019-01-20T22:05:37.951Z,32.17
2019-01-20T22:15:43.287Z,29.27
2019-01-20T22:25:48.581Z,27.10
2019-01-20T22:35:53.957Z,28.10
2019-01-20T22:45:59.317Z,29.33
2019-01-20T22:56:04.680Z,28.30
2019-01-20T23:06:10.094Z,28.97
2019-01-20T23:16:15.551Z,29.87
2019-01-20T23:26:20.918Z,31.00
2019-01-20T23:36:26.248Z,29.17
2019-01-20T23:46:31.570Z,32.53
2019-01-20T23:56:37.047Z,30.27
